createdAt,value
2018-05-19T00:00:57.779Z,7.90
2018-05-19T00:01:57.756Z,7.40
2018-05-19T00:02:57.731Z,7.70
2018-05-19T00:03:57.711Z,7.50
2018-05-19T00:04:57.677Z,7.80
2018-05-19T00:05:57.660Z,8.30
2018-05-19T00:06:57.628Z,8.00
2018-05-19T00:07:57.597Z,8.60
2018-05-19T00:08:57.569Z,7.10
2018-05-19T00:09:57.546Z,8.20
2018-05-19T00:10:57.517Z,8.00
2018-05-19T00:11:57.492Z,7.90
2018-05-19T00:12:57.471Z,7.80
2018-05-19T00:13:57.437Z,8.40
2018-05-19T00:14:57.412Z,7.70
2018-05-19T00:15:57.392Z,7.90
2018-05-19T00:16:57.359Z,8.30
2018-05-19T00:17:57.344Z,7.50
2018-05-19T00:18:57.313Z,7.70
2018-05-19T00:19:57.294Z,8.10
2018-05-19T00:20:57.263Z,8.10
2018-05-19T00:21:57.236Z,7.80
2018-05-19T00:22:57.205Z,8.10
2018-05-19T00:23:57.176Z,8.10
2018-05-19T00:24:57.155Z,7.60
2018-05-19T00:25:57.136Z,7.70
2018-05-19T00:26:57.097Z,7.90
2018-05-19T00:27:57.080Z,7.80
2018-05-19T00:28:57.051Z,7.80
2018-05-19T00:29:57.039Z,7.40
2018-05-19T00:30:57.002Z,7.60
2018-05-19T00:31:56.977Z,8.10
2018-05-19T00:32:56.951Z,7.90
2018-05-19T00:33:56.914Z,8.10
2018-05-19T00:34:56.893Z,7.80
2018-05-19T00:35:56.869Z,7.60
2018-05-19T00:36:56.839Z,7.60
2018-05-19T00:37:56.820Z,7.80
2018-05-19T00:38:56.785Z,8.40
2018-05-19T00:39:56.760Z,8.00
2018-05-19T00:40:56.736Z,8.10
2018-05-19T00:41:56.709Z,7.70
2018-05-19T00:42:56.687Z,7.90
2018-05-19T00:43:56.659Z,8.30
2018-05-19T00:44:56.630Z,7.60
2018-05-19T00:45:56.609Z,8.20
2018-05-19T00:46:56.580Z,7.90
2018-05-19T00:47:56.555Z,8.40
2018-05-19T00:48:56.531Z,7.90
2018-05-19T00:49:56.509Z,8.10
2018-05-19T00:50:56.480Z,8.00
2018-05-19T00:51:56.451Z,7.70
2018-05-19T00:52:56.423Z,8.50
2018-05-19T00:53:56.400Z,8.50
2018-05-19T00:54:56.376Z,8.00
2018-05-19T00:55:56.355Z,8.70
2018-05-19T00:56:56.317Z,7.90
2018-05-19T00:57:56.297Z,8.20
2018-05-19T00:58:56.270Z,8.30
2018-05-19T00:59:56.241Z,7.70
2018-05-19T01:00:56.211Z,8.10
2018-05-19T01:01:56.195Z,8.70
2018-05-19T01:02:56.161Z,8.20
2018-05-19T01:03:56.142Z,8.10
2018-05-19T01:04:56.128Z,8.20
2018-05-19T01:05:56.081Z,8.60
2018-05-19T01:06:56.064Z,8.10
2018-05-19T01:07:56.031Z,8.50
2018-05-19T01:08:56.005Z,8.60
2018-05-19T01:09:55.987Z,8.20
2018-05-19T01:10:55.950Z,9.00
2018-05-19T01:11:55.936Z,9.30
2018-05-19T01:12:55.909Z,9.10
2018-05-19T01:13:55.873Z,9.30
2018-05-19T01:14:55.857Z,9.40
2018-05-19T01:15:55.821Z,10.00
2018-05-19T01:16:55.798Z,9.30
2018-05-19T01:17:55.775Z,9.60
2018-05-19T01:18:55.745Z,9.20
2018-05-19T01:19:55.721Z,9.50
2018-05-19T01:20:55.697Z,9.30
2018-05-19T01:21:55.666Z,9.40
2018-05-19T01:22:55.643Z,9.30
2018-05-19T01:23:55.633Z,8.70
2018-05-19T01:24:55.589Z,9.40
2018-05-19T01:25:55.566Z,8.70
2018-05-19T01:26:55.535Z,9.50
2018-05-19T01:27:55.514Z,9.60
2018-05-19T01:28:55.488Z,9.20
2018-05-19T01:29:55.458Z,10.90
2018-05-19T01:30:55.436Z,10.50
2018-05-19T01:31:55.408Z,10.70
2018-05-19T01:32:55.378Z,10.70
2018-05-19T01:33:55.358Z,10.40
2018-05-19T01:34:55.328Z,10.40
2018-05-19T01:35:55.308Z,9.70
2018-05-19T01:36:55.292Z,10.70
2018-05-19T01:37:55.245Z,10.00
2018-05-19T01:38:55.227Z,10.40
2018-05-19T01:39:55.195Z,10.30
2018-05-19T01:40:55.171Z,10.10
2018-05-19T01:41:55.143Z,10.50
2018-05-19T01:42:55.119Z,10.40
2018-05-19T01:43:55.097Z,10.00
2018-05-19T01:44:55.070Z,9.80
2018-05-19T01:45:55.043Z,10.50
2018-05-19T01:46:55.020Z,10.80
2018-05-19T01:47:54.983Z,10.50
2018-05-19T01:48:54.960Z,10.50
2018-05-19T01:49:54.934Z,9.90
2018-05-19T01:50:54.914Z,11.40
2018-05-19T01:51:54.880Z,10.90
2018-05-19T01:52:54.859Z,10.70
2018-05-19T01:53:54.827Z,10.00
2018-05-19T01:54:54.799Z,11.00
2018-05-19T01:55:54.782Z,10.60
2018-05-19T01:56:54.757Z,10.70
2018-05-19T01:57:54.724Z,11.60
2018-05-19T01:58:54.697Z,11.60
2018-05-19T01:59:54.669Z,11.10
2018-05-19T02:00:54.650Z,11.70
2018-05-19T02:01:54.626Z,11.00
2018-05-19T02:02:54.590Z,11.60
2018-05-19T02:03:54.574Z,11.50
2018-05-19T02:04:54.537Z,11.70
2018-05-19T02:05:54.520Z,11.60
2018-05-19T02:06:54.486Z,11.10
2018-05-19T02:07:54.468Z,12.00
2018-05-19T02:08:54.444Z,11.90
2018-05-19T02:09:54.406Z,12.40
2018-05-19T02:10:54.389Z,12.20
2018-05-19T02:11:54.357Z,12.20
2018-05-19T02:12:54.329Z,12.00
2018-05-19T02:13:54.312Z,11.00
2018-05-19T02:14:54.280Z,12.50
2018-05-19T02:15:54.260Z,12.60
2018-05-19T02:16:54.232Z,12.30
2018-05-19T02:17:54.196Z,12.80
2018-05-19T02:18:54.180Z,12.40
2018-05-19T02:19:54.149Z,11.60
2018-05-19T02:20:54.128Z,11.70
2018-05-19T02:21:54.093Z,12.50
2018-05-19T02:22:54.076Z,11.80
2018-05-19T02:23:54.041Z,13.30
2018-05-19T02:24:54.020Z,11.90
2018-05-19T02:25:53.990Z,12.60
2018-05-19T02:26:53.967Z,12.00
2018-05-19T02:27:53.952Z,12.30
2018-05-19T02:28:53.914Z,12.30
2018-05-19T02:29:53.888Z,12.20
2018-05-19T02:30:53.899Z,11.40
2018-05-19T02:31:53.839Z,12.00
2018-05-19T02:32:53.811Z,12.50
2018-05-19T02:33:53.780Z,13.00
2018-05-19T02:34:53.814Z,13.30
2018-05-19T02:35:53.730Z,13.30
2018-05-19T02:36:53.709Z,13.70
2018-05-19T02:37:53.677Z,13.00
2018-05-19T02:38:53.647Z,12.70
2018-05-19T02:39:53.724Z,12.80
2018-05-19T02:40:53.607Z,12.30
2018-05-19T02:41:53.570Z,12.20
2018-05-19T02:42:53.543Z,11.70
2018-05-19T02:43:53.560Z,12.10
2018-05-19T02:44:53.495Z,11.80
2018-05-19T02:45:53.464Z,11.40
2018-05-19T02:46:53.443Z,11.40
2018-05-19T02:47:53.416Z,11.30
2018-05-19T02:48:53.393Z,12.40
2018-05-19T02:49:53.364Z,12.50
2018-05-19T02:50:53.339Z,12.30
2018-05-19T02:51:53.304Z,12.80
2018-05-19T02:52:53.281Z,12.70
2018-05-19T02:53:53.257Z,12.20
2018-05-19T02:54:53.236Z,12.30
2018-05-19T02:55:53.200Z,12.20
2018-05-19T02:56:53.173Z,12.60
2018-05-19T02:57:53.153Z,12.40
2018-05-19T02:58:53.126Z,12.30
2018-05-19T02:59:53.097Z,12.20
2018-05-19T03:00:53.080Z,12.40
2018-05-19T03:01:53.093Z,12.60
2018-05-19T03:02:53.067Z,12.10
2018-05-19T03:03:52.988Z,13.00
2018-05-19T03:04:52.969Z,12.50
2018-05-19T03:05:52.950Z,12.40
2018-05-19T03:06:52.959Z,13.50
2018-05-19T03:07:52.893Z,13.10
2018-05-19T03:08:52.863Z,12.60
2018-05-19T03:09:52.838Z,13.40
2018-05-19T03:10:52.805Z,13.40
2018-05-19T03:11:52.788Z,14.40
2018-05-19T03:12:52.762Z,13.60
2018-05-19T03:13:52.725Z,14.00
2018-05-19T03:14:52.701Z,13.30
2018-05-19T03:15:52.680Z,12.90
2018-05-19T03:16:52.661Z,12.70
2018-05-19T03:17:52.630Z,13.10
2018-05-19T03:18:52.598Z,13.30
2018-05-19T03:19:52.573Z,12.60
2018-05-19T03:20:52.541Z,12.90
2018-05-19T03:21:52.524Z,13.00
2018-05-19T03:22:52.493Z,13.30
2018-05-19T03:23:52.472Z,13.20
2018-05-19T03:24:52.436Z,13.50
2018-05-19T03:25:52.417Z,13.80
2018-05-19T03:26:52.385Z,12.60
2018-05-19T03:27:52.426Z,13.00
2018-05-19T03:28:52.340Z,13.20
2018-05-19T03:29:52.303Z,13.40
2018-05-19T03:30:52.287Z,13.40
2018-05-19T03:31:52.252Z,12.70
2018-05-19T03:32:52.301Z,12.20
2018-05-19T03:33:52.208Z,12.70
2018-05-19T03:34:52.181Z,12.40
2018-05-19T03:35:52.154Z,12.50
2018-05-19T03:36:52.122Z,12.60
2018-05-19T03:37:52.098Z,12.80
2018-05-19T03:38:52.075Z,13.00
2018-05-19T03:39:52.040Z,13.20
2018-05-19T03:40:52.017Z,12.60
2018-05-19T03:41:51.993Z,13.00
2018-05-19T03:42:51.964Z,13.20
2018-05-19T03:43:51.942Z,13.00
2018-05-19T03:44:51.915Z,13.20
2018-05-19T03:45:51.970Z,12.20
2018-05-19T03:46:51.861Z,12.40
2018-05-19T03:47:51.843Z,12.40
2018-05-19T03:48:51.805Z,12.60
2018-05-19T03:49:51.780Z,12.60
2018-05-19T03:50:51.763Z,13.40
2018-05-19T03:51:51.730Z,12.60
2018-05-19T03:52:51.700Z,12.10
2018-05-19T03:53:51.729Z,12.40
2018-05-19T03:54:51.654Z,12.00
2018-05-19T03:55:51.629Z,12.20
2018-05-19T03:56:51.602Z,12.10
2018-05-19T03:57:51.572Z,11.70
2018-05-19T03:58:51.540Z,11.50
2018-05-19T03:59:51.525Z,11.30
2018-05-19T04:00:51.493Z,10.40
2018-05-19T04:01:51.468Z,11.30
2018-05-19T04:02:51.442Z,11.30
2018-05-19T04:03:51.407Z,11.40
2018-05-19T04:04:51.383Z,11.30
2018-05-19T04:05:51.363Z,11.90
2018-05-19T04:06:51.329Z,11.30
2018-05-19T04:07:51.305Z,11.50
2018-05-19T04:08:51.282Z,11.20
2018-05-19T04:09:51.249Z,11.10
2018-05-19T04:10:51.225Z,10.80
2018-05-19T04:11:51.203Z,10.80
2018-05-19T04:12:51.177Z,10.30
2018-05-19T04:13:51.149Z,10.60
2018-05-19T04:14:51.127Z,10.30
2018-05-19T04:15:51.092Z,11.00
2018-05-19T04:16:51.073Z,10.70
2018-05-19T04:17:51.041Z,11.00
2018-05-19T04:18:51.012Z,10.10
2018-05-19T04:19:50.996Z,10.70
2018-05-19T04:20:50.969Z,10.70
2018-05-19T04:21:50.939Z,10.50
2018-05-19T04:22:50.912Z,10.10
2018-05-19T04:23:50.885Z,10.10
2018-05-19T04:24:50.854Z,10.80
2018-05-19T04:25:50.837Z,11.10
2018-05-19T04:26:50.808Z,11.10
2018-05-19T04:27:50.787Z,10.60
2018-05-19T04:28:50.758Z,10.40
2018-05-19T04:29:50.727Z,11.00
2018-05-19T04:30:50.700Z,9.90
2018-05-19T04:31:50.682Z,10.40
2018-05-19T04:32:50.648Z,10.20
2018-05-19T04:33:50.624Z,10.70
2018-05-19T04:34:50.600Z,10.70
2018-05-19T04:35:50.569Z,10.70
2018-05-19T04:36:50.544Z,10.70
2018-05-19T04:37:50.521Z,10.40
2018-05-19T04:38:50.492Z,10.20
2018-05-19T04:39:50.470Z,10.50
2018-05-19T04:40:50.438Z,11.00
2018-05-19T04:41:50.416Z,10.60
2018-05-19T04:42:50.391Z,9.90
2018-05-19T04:43:50.357Z,10.40
2018-05-19T04:44:50.339Z,10.00
2018-05-19T04:45:50.306Z,10.00
2018-05-19T04:46:50.288Z,10.60
2018-05-19T04:47:50.251Z,10.50
2018-05-19T04:48:50.225Z,10.30
2018-05-19T04:49:50.215Z,10.30
2018-05-19T04:50:50.173Z,9.90
2018-05-19T04:51:50.153Z,9.90
2018-05-19T04:52:50.129Z,10.40
2018-05-19T04:53:50.101Z,10.00
2018-05-19T04:54:50.077Z,10.00
2018-05-19T04:55:50.047Z,10.40
2018-05-19T04:56:50.051Z,10.00
2018-05-19T04:57:49.993Z,10.40
2018-05-19T04:58:49.979Z,9.70
2018-05-19T04:59:49.940Z,10.10
2018-05-19T05:00:49.915Z,10.10
2018-05-19T05:01:49.890Z,10.20
2018-05-19T05:02:49.868Z,9.90
2018-05-19T05:03:49.843Z,9.80
2018-05-19T05:04:49.894Z,10.60
2018-05-19T05:05:49.787Z,10.40
2018-05-19T05:06:49.759Z,10.60
2018-05-19T05:07:49.737Z,10.70
2018-05-19T05:08:49.702Z,10.80
2018-05-19T05:09:49.686Z,11.00
2018-05-19T05:10:49.652Z,11.70
2018-05-19T05:11:49.627Z,11.70
2018-05-19T05:12:49.611Z,10.80
2018-05-19T05:13:49.628Z,11.50
2018-05-19T05:14:49.549Z,11.00
2018-05-19T05:15:49.528Z,11.10
2018-05-19T05:16:49.502Z,11.00
2018-05-19T05:17:49.468Z,11.40
2018-05-19T05:18:49.443Z,10.50
2018-05-19T05:19:49.507Z,15.80
2018-05-19T05:20:49.391Z,14.90
2018-05-19T05:21:49.372Z,13.00
2018-05-19T05:22:49.342Z,11.40
2018-05-19T05:23:49.313Z,10.80
2018-05-19T05:24:49.289Z,11.30
2018-05-19T05:25:49.257Z,11.40
2018-05-19T05:26:49.250Z,11.70
2018-05-19T05:27:49.212Z,11.60
2018-05-19T05:28:49.188Z,12.50
2018-05-19T05:29:49.161Z,12.80
2018-05-19T05:30:49.128Z,14.80
2018-05-19T05:31:49.104Z,11.40
2018-05-19T05:32:49.078Z,11.40
2018-05-19T05:33:49.060Z,11.80
2018-05-19T05:34:49.030Z,11.90
2018-05-19T05:35:49.052Z,11.70
2018-05-19T05:36:48.975Z,12.80
2018-05-19T05:37:48.951Z,12.60
2018-05-19T05:38:48.927Z,13.00
2018-05-19T05:39:48.896Z,12.30
2018-05-19T05:40:48.874Z,12.20
2018-05-19T05:41:48.844Z,12.90
2018-05-19T05:42:48.819Z,12.00
2018-05-19T05:43:48.792Z,11.60
2018-05-19T05:44:48.772Z,12.60
2018-05-19T05:45:48.740Z,13.50
2018-05-19T05:46:48.716Z,13.20
2018-05-19T05:47:48.691Z,13.60
2018-05-19T05:48:48.670Z,11.80
2018-05-19T05:49:48.637Z,12.40
2018-05-19T05:50:48.609Z,11.60
2018-05-19T05:51:48.588Z,12.00
2018-05-19T05:52:48.562Z,12.00
2018-05-19T05:53:48.531Z,11.60
2018-05-19T05:54:48.507Z,12.80
2018-05-19T05:55:48.485Z,12.00
2018-05-19T05:56:48.456Z,11.70
2018-05-19T05:57:48.430Z,12.50
2018-05-19T05:58:48.404Z,11.70
2018-05-19T05:59:48.442Z,11.60
2018-05-19T06:00:48.357Z,11.90
2018-05-19T06:01:48.325Z,12.40
2018-05-19T06:02:48.303Z,11.80
2018-05-19T06:03:48.277Z,11.90
2018-05-19T06:04:48.254Z,12.70
2018-05-19T06:05:48.223Z,11.70
2018-05-19T06:06:48.200Z,11.60
2018-05-19T06:07:48.171Z,11.90
2018-05-19T06:08:48.155Z,11.40
2018-05-19T06:09:48.116Z,12.70
2018-05-19T06:10:48.097Z,12.30
2018-05-19T06:11:48.065Z,11.40
2018-05-19T06:12:48.040Z,11.70
2018-05-19T06:13:48.021Z,11.60
2018-05-19T06:14:47.988Z,12.70
2018-05-19T06:15:47.971Z,12.50
2018-05-19T06:16:47.944Z,12.20
2018-05-19T06:17:47.909Z,14.00
2018-05-19T06:18:47.942Z,13.10
2018-05-19T06:19:47.859Z,13.90
2018-05-19T06:20:47.893Z,17.40
2018-05-19T06:21:47.819Z,12.30
2018-05-19T06:22:47.796Z,12.40
2018-05-19T06:23:47.771Z,12.40
2018-05-19T06:24:47.738Z,14.70
2018-05-19T06:25:47.705Z,14.40
2018-05-19T06:26:47.682Z,12.60
2018-05-19T06:27:47.662Z,11.90
2018-05-19T06:28:47.644Z,12.60
2018-05-19T06:29:47.599Z,13.10
2018-05-19T06:30:47.584Z,15.10
2018-05-19T06:31:47.564Z,13.70
2018-05-19T06:32:47.531Z,13.30
2018-05-19T06:33:47.499Z,13.50
2018-05-19T06:34:47.494Z,13.40
2018-05-19T06:35:47.447Z,12.40
2018-05-19T06:36:47.421Z,12.80
2018-05-19T06:37:47.404Z,14.60
2018-05-19T06:38:47.374Z,12.20
2018-05-19T06:39:47.346Z,13.20
2018-05-19T06:40:47.327Z,12.20
2018-05-19T06:41:47.295Z,12.10
2018-05-19T06:42:47.269Z,13.60
2018-05-19T06:43:47.249Z,13.80
2018-05-19T06:44:47.218Z,12.40
2018-05-19T06:45:47.192Z,12.90
2018-05-19T06:46:47.162Z,12.10
2018-05-19T06:47:47.146Z,12.00
2018-05-19T06:48:47.123Z,12.30
2018-05-19T06:49:47.088Z,14.80
2018-05-19T06:50:47.072Z,13.30
2018-05-19T06:51:47.044Z,14.30
2018-05-19T06:52:47.015Z,13.40
2018-05-19T06:53:46.989Z,15.70
2018-05-19T06:54:46.962Z,12.60
2018-05-19T06:55:46.939Z,12.80
2018-05-19T06:56:46.914Z,12.30
2018-05-19T06:57:46.887Z,12.20
2018-05-19T06:58:46.861Z,12.30
2018-05-19T06:59:46.837Z,12.60
2018-05-19T07:00:46.810Z,14.70
2018-05-19T07:01:46.787Z,13.90
2018-05-19T07:02:46.827Z,14.70
2018-05-19T07:03:46.735Z,15.10
2018-05-19T07:04:46.714Z,13.30
2018-05-19T07:05:46.684Z,12.10
2018-05-19T07:06:46.658Z,11.90
2018-05-19T07:07:46.630Z,13.70
2018-05-19T07:08:46.606Z,12.00
2018-05-19T07:09:46.590Z,12.80
2018-05-19T07:10:46.553Z,11.70
2018-05-19T07:11:46.535Z,11.50
2018-05-19T07:12:46.508Z,12.50
2018-05-19T07:13:46.483Z,12.70
2018-05-19T07:14:46.457Z,12.80
2018-05-19T07:15:46.440Z,11.60
2018-05-19T07:16:46.400Z,10.70
2018-05-19T07:17:46.398Z,13.80
2018-05-19T07:18:46.429Z,14.40
2018-05-19T07:19:46.330Z,14.70
2018-05-19T07:20:46.305Z,14.10
2018-05-19T07:21:46.274Z,12.70
2018-05-19T07:22:46.255Z,12.10
2018-05-19T07:23:46.224Z,12.00
2018-05-19T07:24:46.198Z,13.80
2018-05-19T07:25:46.244Z,12.10
2018-05-19T07:26:46.351Z,13.40
2018-05-19T07:27:46.139Z,12.50
2018-05-19T07:28:46.098Z,11.50
2018-05-19T07:29:46.070Z,11.60
2018-05-19T07:30:46.047Z,12.80
2018-05-19T07:31:46.041Z,11.80
2018-05-19T07:32:45.998Z,12.80
2018-05-19T07:33:45.969Z,12.10
2018-05-19T07:34:45.968Z,12.80
2018-05-19T07:35:45.965Z,13.30
2018-05-19T07:36:45.894Z,13.00
2018-05-19T07:37:45.870Z,12.50
2018-05-19T07:38:45.843Z,12.70
2018-05-19T07:39:45.823Z,11.70
2018-05-19T07:40:45.803Z,12.30
2018-05-19T07:41:45.778Z,12.00
2018-05-19T07:42:45.753Z,11.60
2018-05-19T07:43:45.716Z,12.40
2018-05-19T07:44:45.690Z,11.60
2018-05-19T07:45:45.673Z,11.70
2018-05-19T07:46:45.644Z,12.20
2018-05-19T07:47:45.657Z,12.90
2018-05-19T07:48:45.597Z,12.70
2018-05-19T07:49:45.564Z,12.00
2018-05-19T07:50:45.597Z,12.30
2018-05-19T07:51:45.519Z,12.50
2018-05-19T07:52:45.486Z,12.20
2018-05-19T07:53:45.479Z,12.80
2018-05-19T07:54:45.448Z,12.50
2018-05-19T07:55:45.417Z,13.00
2018-05-19T07:56:45.394Z,15.70
2018-05-19T07:57:45.372Z,13.70
2018-05-19T07:58:45.376Z,12.90
2018-05-19T07:59:45.324Z,13.70
2018-05-19T08:00:45.291Z,13.30
2018-05-19T08:01:45.267Z,13.70
2018-05-19T08:02:45.245Z,15.10
2018-05-19T08:03:45.219Z,14.10
2018-05-19T08:04:45.193Z,16.30
2018-05-19T08:05:45.164Z,13.30
2018-05-19T08:06:45.216Z,13.00
2018-05-19T08:07:45.120Z,13.80
2018-05-19T08:08:45.094Z,13.90
2018-05-19T08:09:45.067Z,16.40
2018-05-19T08:10:45.063Z,14.60
2018-05-19T08:11:45.012Z,13.90
2018-05-19T08:12:45.059Z,15.10
2018-05-19T08:13:45.011Z,13.70
2018-05-19T08:14:44.968Z,12.80
2018-05-19T08:15:44.925Z,12.30
2018-05-19T08:16:44.890Z,13.70
2018-05-19T08:17:44.875Z,13.80
2018-05-19T08:18:44.846Z,14.20
2018-05-19T08:19:44.818Z,13.10
2018-05-19T08:20:44.794Z,13.80
2018-05-19T08:21:44.759Z,13.40
2018-05-19T08:22:44.745Z,15.40
2018-05-19T08:23:44.713Z,14.40
2018-05-19T08:24:44.685Z,14.40
2018-05-19T08:25:45.926Z,13.50
2018-05-19T08:26:44.638Z,14.60
2018-05-19T08:27:44.621Z,13.90
2018-05-19T08:28:44.588Z,13.40
2018-05-19T08:29:44.586Z,13.50
2018-05-19T08:30:44.627Z,13.10
2018-05-19T08:31:44.569Z,13.50
2018-05-19T08:32:44.496Z,12.80
2018-05-19T08:33:44.465Z,13.80
2018-05-19T08:34:44.440Z,14.70
2018-05-19T08:35:44.423Z,15.90
2018-05-19T08:36:44.391Z,14.10
2018-05-19T08:37:44.363Z,14.40
2018-05-19T08:38:44.348Z,13.70
2018-05-19T08:39:44.320Z,13.30
2018-05-19T08:40:44.295Z,13.50
2018-05-19T08:41:44.278Z,14.60
2018-05-19T08:42:44.253Z,13.60
2018-05-19T08:43:44.225Z,13.50
2018-05-19T08:44:44.195Z,14.50
2018-05-19T08:45:44.173Z,14.00
2018-05-19T08:46:44.140Z,14.00
2018-05-19T08:47:44.113Z,14.00
2018-05-19T08:48:44.098Z,14.70
2018-05-19T08:49:44.064Z,14.50
2018-05-19T08:50:44.040Z,14.20
2018-05-19T08:51:44.016Z,14.50
2018-05-19T08:52:43.997Z,15.00
2018-05-19T08:53:43.975Z,14.50
2018-05-19T08:54:43.938Z,14.30
2018-05-19T08:55:43.928Z,15.00
2018-05-19T08:56:43.899Z,14.60
2018-05-19T08:57:43.862Z,15.00
2018-05-19T08:58:43.849Z,14.20
2018-05-19T08:59:43.822Z,15.10
2018-05-19T09:00:43.797Z,16.40
2018-05-19T09:01:43.763Z,15.00
2018-05-19T09:02:43.748Z,14.40
2018-05-19T09:03:43.718Z,14.10
2018-05-19T09:04:43.711Z,15.90
2018-05-19T09:05:43.673Z,14.50
2018-05-19T09:06:43.663Z,14.70
2018-05-19T09:07:43.615Z,15.50
2018-05-19T09:08:43.601Z,14.00
2018-05-19T09:09:43.577Z,13.90
2018-05-19T09:10:43.554Z,14.70
2018-05-19T09:11:43.523Z,15.40
2018-05-19T09:12:43.550Z,14.70
2018-05-19T09:13:43.475Z,14.40
2018-05-19T09:14:43.440Z,15.50
2018-05-19T09:15:43.425Z,14.20
2018-05-19T09:16:43.396Z,14.30
2018-05-19T09:17:43.388Z,14.80
2018-05-19T09:18:43.349Z,13.40
2018-05-19T09:19:43.318Z,14.50
2018-05-19T09:20:43.299Z,14.30
2018-05-19T09:21:43.300Z,13.40
2018-05-19T09:22:43.250Z,14.10
2018-05-19T09:23:43.219Z,14.30
2018-05-19T09:24:43.198Z,15.80
2018-05-19T09:25:43.215Z,15.10
2018-05-19T09:26:43.177Z,14.70
2018-05-19T09:27:43.123Z,14.30
2018-05-19T09:28:43.093Z,14.40
2018-05-19T09:29:43.086Z,15.30
2018-05-19T09:30:43.044Z,14.40
2018-05-19T09:31:43.023Z,15.30
2018-05-19T09:32:43.000Z,14.90
2018-05-19T09:33:42.971Z,13.80
2018-05-19T09:34:42.944Z,16.20
2018-05-19T09:35:42.996Z,17.10
2018-05-19T09:36:42.906Z,14.90
2018-05-19T09:37:42.901Z,14.80
2018-05-19T09:38:42.842Z,15.50
2018-05-19T09:39:42.818Z,14.50
2018-05-19T09:40:42.801Z,14.60
2018-05-19T09:41:42.768Z,14.70
2018-05-19T09:42:42.752Z,16.20
2018-05-19T09:43:42.728Z,15.50
2018-05-19T09:44:42.725Z,14.30
2018-05-19T09:45:42.677Z,14.70
2018-05-19T09:46:42.644Z,13.70
2018-05-19T09:47:42.634Z,14.30
2018-05-19T09:48:42.600Z,14.30
2018-05-19T09:49:42.570Z,15.10
2018-05-19T09:50:42.549Z,14.40
2018-05-19T09:51:42.533Z,14.40
2018-05-19T09:52:42.500Z,14.70
2018-05-19T09:53:42.498Z,15.40
2018-05-19T09:54:42.446Z,14.70
2018-05-19T09:55:42.421Z,14.40
2018-05-19T09:56:42.399Z,14.90
2018-05-19T09:57:42.369Z,14.80
2018-05-19T09:58:42.348Z,13.90
2018-05-19T09:59:42.324Z,14.50
2018-05-19T10:00:42.305Z,14.70
2018-05-19T10:01:42.274Z,14.70
2018-05-19T10:02:42.278Z,15.40
2018-05-19T10:03:42.217Z,15.00
2018-05-19T10:04:42.204Z,14.90
2018-05-19T10:05:42.174Z,14.40
2018-05-19T10:06:42.181Z,14.60
2018-05-19T10:07:42.136Z,14.10
2018-05-19T10:08:42.093Z,14.20
2018-05-19T10:09:42.082Z,14.10
2018-05-19T10:10:42.077Z,14.80
2018-05-19T10:11:42.073Z,14.80
2018-05-19T10:12:42.009Z,14.80
2018-05-19T10:13:41.976Z,14.00
2018-05-19T10:14:41.985Z,14.30
2018-05-19T10:15:41.929Z,13.40
2018-05-19T10:16:41.896Z,13.70
2018-05-19T10:17:41.870Z,13.50
2018-05-19T10:18:41.850Z,13.30
2018-05-19T10:19:41.831Z,13.10
2018-05-19T10:20:41.800Z,13.70
2018-05-19T10:21:41.777Z,12.70
2018-05-19T10:22:41.836Z,13.30
2018-05-19T10:23:41.724Z,13.40
2018-05-19T10:24:41.708Z,13.30
2018-05-19T10:25:41.673Z,13.60
2018-05-19T10:26:41.649Z,13.50
2018-05-19T10:27:41.624Z,14.50
2018-05-19T10:28:41.613Z,13.50
2018-05-19T10:29:41.578Z,13.60
2018-05-19T10:30:41.558Z,13.50
2018-05-19T10:31:41.530Z,12.90
2018-05-19T10:32:41.529Z,13.00
2018-05-19T10:33:41.478Z,13.30
2018-05-19T10:34:41.448Z,12.30
2018-05-19T10:35:41.430Z,13.10
2018-05-19T10:36:41.401Z,13.30
2018-05-19T10:37:41.391Z,13.40
2018-05-19T10:38:41.351Z,14.20
2018-05-19T10:39:41.331Z,13.30
2018-05-19T10:40:41.313Z,13.40
2018-05-19T10:41:41.276Z,13.20
2018-05-19T10:42:41.262Z,15.30
2018-05-19T10:43:41.228Z,13.90
2018-05-19T10:44:41.204Z,13.30
2018-05-19T10:45:41.174Z,13.40
2018-05-19T10:46:41.155Z,14.00
2018-05-19T10:47:41.131Z,14.40
2018-05-19T10:48:41.107Z,13.70
2018-05-19T10:49:41.083Z,14.30
2018-05-19T10:50:41.054Z,13.10
2018-05-19T10:51:41.040Z,12.20
2018-05-19T10:52:41.004Z,12.90
2018-05-19T10:53:40.988Z,13.40
2018-05-19T10:54:40.951Z,12.80
2018-05-19T10:55:40.929Z,13.50
2018-05-19T10:56:40.911Z,12.90
2018-05-19T10:57:40.884Z,12.40
2018-05-19T10:58:40.856Z,13.00
2018-05-19T10:59:40.839Z,13.00
2018-05-19T11:00:40.805Z,13.20
2018-05-19T11:01:40.785Z,12.70
2018-05-19T11:02:40.755Z,12.60
2018-05-19T11:03:40.731Z,12.90
2018-05-19T11:04:40.714Z,12.80
2018-05-19T11:05:40.683Z,12.20
2018-05-19T11:06:40.665Z,12.10
2018-05-19T11:07:40.632Z,12.90
2018-05-19T11:08:40.619Z,13.20
2018-05-19T11:09:40.588Z,12.40
2018-05-19T11:10:40.561Z,12.50
2018-05-19T11:11:40.542Z,12.10
2018-05-19T11:12:40.521Z,12.90
2018-05-19T11:13:40.495Z,12.00
2018-05-19T11:14:40.460Z,12.80
2018-05-19T11:15:40.435Z,12.60
2018-05-19T11:16:40.422Z,13.80
2018-05-19T11:17:40.386Z,13.40
2018-05-19T11:18:40.480Z,13.70
2018-05-19T11:19:40.358Z,14.70
2018-05-19T11:20:40.321Z,13.70
2018-05-19T11:21:40.304Z,14.60
2018-05-19T11:22:40.267Z,14.00
2018-05-19T11:23:40.245Z,13.30
2018-05-19T11:24:40.223Z,12.90
2018-05-19T11:25:40.211Z,13.00
2018-05-19T11:26:40.177Z,13.50
2018-05-19T11:27:40.146Z,12.50
2018-05-19T11:28:40.130Z,13.40
2018-05-19T11:29:40.095Z,13.40
2018-05-19T11:30:40.074Z,13.80
2018-05-19T11:31:40.056Z,13.50
2018-05-19T11:32:40.026Z,13.80
2018-05-19T11:33:40.009Z,12.70
2018-05-19T11:34:39.973Z,13.20
2018-05-19T11:35:39.949Z,13.20
2018-05-19T11:36:39.935Z,13.50
2018-05-19T11:37:39.898Z,14.30
2018-05-19T11:38:39.884Z,13.90
2018-05-19T11:39:39.852Z,14.00
2018-05-19T11:40:39.835Z,14.10
2018-05-19T11:41:39.838Z,13.90
2018-05-19T11:42:39.780Z,13.40
2018-05-19T11:43:39.760Z,14.00
2018-05-19T11:44:39.736Z,13.80
2018-05-19T11:45:39.714Z,14.20
2018-05-19T11:46:39.685Z,14.40
2018-05-19T11:47:39.660Z,13.50
2018-05-19T11:48:39.639Z,13.20
2018-05-19T11:49:39.613Z,13.90
2018-05-19T11:50:39.642Z,13.80
2018-05-19T11:51:39.564Z,13.40
2018-05-19T11:52:39.536Z,13.50
2018-05-19T11:53:39.512Z,14.00
2018-05-19T11:54:39.486Z,13.90
2018-05-19T11:55:39.465Z,12.70
2018-05-19T11:56:39.505Z,13.10
2018-05-19T11:57:39.415Z,12.70
2018-05-19T11:58:39.393Z,13.00
2018-05-19T11:59:39.365Z,12.90
2018-05-19T12:00:39.342Z,12.60
2018-05-19T12:01:39.320Z,12.90
2018-05-19T12:02:39.396Z,12.70
2018-05-19T12:03:39.277Z,13.40
2018-05-19T12:04:39.247Z,12.10
2018-05-19T12:05:39.219Z,12.90
2018-05-19T12:06:39.196Z,12.70
2018-05-19T12:07:39.178Z,13.20
2018-05-19T12:08:39.142Z,13.40
2018-05-19T12:09:39.125Z,13.10
2018-05-19T12:10:39.091Z,13.00
2018-05-19T12:11:39.081Z,13.10
2018-05-19T12:12:39.048Z,13.10
2018-05-19T12:13:39.026Z,13.90
2018-05-19T12:14:38.998Z,13.90
2018-05-19T12:15:38.968Z,13.40
2018-05-19T12:16:38.957Z,14.10
2018-05-19T12:17:38.927Z,13.50
2018-05-19T12:18:38.904Z,13.30
2018-05-19T12:19:38.883Z,13.90
2018-05-19T12:20:38.849Z,13.60
2018-05-19T12:21:38.820Z,13.10
2018-05-19T12:22:38.807Z,13.10
2018-05-19T12:23:38.773Z,13.30
2018-05-19T12:24:38.797Z,13.20
2018-05-19T12:25:38.737Z,12.90
2018-05-19T12:26:38.780Z,12.20
2018-05-19T12:27:38.683Z,12.50
2018-05-19T12:28:38.662Z,13.50
2018-05-19T12:29:38.634Z,12.80
2018-05-19T12:30:38.606Z,13.10
2018-05-19T12:31:38.658Z,12.90
2018-05-19T12:32:38.561Z,12.50
2018-05-19T12:33:38.533Z,12.70
2018-05-19T12:34:38.510Z,12.70
2018-05-19T12:35:38.482Z,12.90
2018-05-19T12:36:38.469Z,13.80
2018-05-19T12:37:38.448Z,12.50
2018-05-19T12:38:38.412Z,13.10
2018-05-19T12:39:38.398Z,12.60
2018-05-19T12:40:38.366Z,12.70
2018-05-19T12:41:38.340Z,13.40
2018-05-19T12:42:38.317Z,13.80
2018-05-19T12:43:38.316Z,13.00
2018-05-19T12:44:38.271Z,12.80
2018-05-19T12:45:38.246Z,14.00
2018-05-19T12:46:38.220Z,14.10
2018-05-19T12:47:38.210Z,14.50
2018-05-19T12:48:38.183Z,14.20
2018-05-19T12:49:38.229Z,20.00
2018-05-19T12:50:38.128Z,17.10
2018-05-19T12:51:38.107Z,13.70
2018-05-19T12:52:38.072Z,14.20
2018-05-19T12:53:38.049Z,14.00
2018-05-19T12:54:38.047Z,13.30
2018-05-19T12:55:38.000Z,13.20